createdAt,value
2017-11-16T00:00:17.168Z,15.32
2017-11-16T00:02:48.209Z,14.87
2017-11-16T00:05:19.868Z,15.43
2017-11-16T00:07:52.152Z,16.27
2017-11-16T00:10:23.068Z,16.12
2017-11-16T00:12:54.727Z,15.85
2017-11-16T00:15:27.307Z,17.30
2017-11-16T00:17:58.028Z,16.85
2017-11-16T00:20:30.939Z,15.07
2017-11-16T00:23:01.868Z,15.95
2017-11-16T00:25:33.208Z,14.82
2017-11-16T00:28:05.890Z,14.43
2017-11-16T00:30:38.868Z,14.30
2017-11-16T00:33:10.328Z,16.45
2017-11-16T00:35:44.529Z,16.42
2017-11-16T00:38:16.608Z,16.30
2017-11-16T00:40:48.476Z,16.12
2017-11-16T00:43:19.627Z,15.35
2017-11-16T00:45:50.248Z,15.68
2017-11-16T00:48:20.768Z,15.63
2017-11-16T00:50:51.708Z,15.80
2017-11-16T00:53:25.767Z,15.73
2017-11-16T00:55:57.889Z,16.00
2017-11-16T00:58:29.448Z,14.75
2017-11-16T01:01:00.368Z,14.95
2017-11-16T01:03:32.028Z,15.10
2017-11-16T01:06:07.868Z,14.65
2017-11-16T01:08:40.248Z,13.70
2017-11-16T01:11:11.748Z,14.85
2017-11-16T01:13:42.788Z,15.18
2017-11-16T01:16:14.387Z,14.15
2017-11-16T01:18:45.137Z,14.60
2017-11-16T01:21:22.767Z,14.82
2017-11-16T01:23:54.368Z,14.63
2017-11-16T01:26:26.228Z,15.57
2017-11-16T01:28:57.467Z,14.70
2017-11-16T01:31:29.128Z,15.40
2017-11-16T01:34:00.167Z,16.10
2017-11-16T01:36:31.928Z,14.07
2017-11-16T01:39:04.770Z,14.20
2017-11-16T01:41:36.277Z,13.30
2017-11-16T01:44:07.907Z,13.93
2017-11-16T01:46:39.468Z,14.07
2017-11-16T01:49:09.988Z,14.73
2017-11-16T01:51:41.028Z,14.35
2017-11-16T01:54:12.908Z,14.43
2017-11-16T01:56:44.770Z,14.75
2017-11-16T01:59:15.769Z,14.07
2017-11-16T02:01:48.169Z,14.77
2017-11-16T02:04:20.448Z,13.65
2017-11-16T02:06:53.948Z,13.50
2017-11-16T02:09:25.491Z,14.00
2017-11-16T02:11:57.328Z,13.48
2017-11-16T02:14:29.628Z,16.02
2017-11-16T02:17:00.547Z,15.88
2017-11-16T02:19:32.728Z,15.55
2017-11-16T02:22:04.488Z,16.05
2017-11-16T02:24:35.628Z,14.43
2017-11-16T02:27:09.328Z,14.32
2017-11-16T02:29:41.407Z,15.05
2017-11-16T02:32:14.888Z,15.35
2017-11-16T02:34:46.788Z,14.30
2017-11-16T02:37:21.468Z,14.45
2017-11-16T02:39:56.088Z,13.85
2017-11-16T02:42:28.787Z,17.27
2017-11-16T02:45:00.790Z,13.77
2017-11-16T02:47:31.862Z,14.80
2017-11-16T02:50:03.426Z,14.65
2017-11-16T02:52:34.870Z,14.05
2017-11-16T02:55:06.527Z,40.58
2017-11-16T02:57:38.388Z,14.50
2017-11-16T03:00:10.148Z,13.68
2017-11-16T03:02:40.887Z,14.07
2017-11-16T03:05:16.328Z,13.77
2017-11-16T03:07:47.048Z,13.93
2017-11-16T03:10:17.487Z,14.57
2017-11-16T03:12:48.728Z,13.90
2017-11-16T03:15:20.688Z,14.20
2017-11-16T03:17:52.828Z,14.77
2017-11-16T03:20:23.788Z,17.33
2017-11-16T03:22:55.648Z,15.63
2017-11-16T03:25:28.747Z,15.90
2017-11-16T03:28:02.748Z,14.93
2017-11-16T03:30:33.790Z,14.25
2017-11-16T03:33:07.708Z,13.88
2017-11-16T03:35:40.387Z,13.07
2017-11-16T03:38:13.068Z,14.45
2017-11-16T03:40:43.693Z,15.30
2017-11-16T03:43:16.467Z,13.38
2017-11-16T03:45:51.088Z,14.52
2017-11-16T03:48:22.447Z,12.32
2017-11-16T03:50:56.148Z,13.05
2017-11-16T03:53:28.607Z,14.00
2017-11-16T03:56:00.368Z,12.60
2017-11-16T03:58:31.228Z,13.23
2017-11-16T04:01:02.049Z,13.98
2017-11-16T04:03:37.068Z,14.98
2017-11-16T04:06:07.908Z,13.23
2017-11-16T04:08:42.788Z,14.73
2017-11-16T04:11:15.948Z,12.18
2017-11-16T04:13:46.828Z,12.23
2017-11-16T04:16:23.333Z,13.57
2017-11-16T04:18:55.508Z,14.32
2017-11-16T04:21:26.828Z,13.20
2017-11-16T04:23:57.168Z,14.13
2017-11-16T04:26:30.777Z,16.95
2017-11-16T04:29:02.627Z,15.45
2017-11-16T04:31:35.428Z,15.40
2017-11-16T04:34:06.049Z,15.57
2017-11-16T04:36:39.788Z,14.27
2017-11-16T04:39:13.988Z,14.40
2017-11-16T04:41:45.208Z,15.02
2017-11-16T04:44:17.202Z,14.98
2017-11-16T04:46:50.467Z,15.57
2017-11-16T04:49:21.408Z,17.30
2017-11-16T04:51:52.248Z,14.35
2017-11-16T04:54:22.809Z,14.95
2017-11-16T04:56:54.628Z,16.05
2017-11-16T04:59:26.888Z,16.35
2017-11-16T05:01:57.628Z,16.12
2017-11-16T05:04:28.049Z,14.10
2017-11-16T05:06:59.088Z,16.65
2017-11-16T05:09:30.747Z,13.90
2017-11-16T05:12:01.830Z,13.50
2017-11-16T05:14:33.647Z,15.07
2017-11-16T05:17:07.249Z,15.73
2017-11-16T05:19:44.108Z,13.85
2017-11-16T05:22:17.628Z,13.13
2017-11-16T05:24:49.988Z,14.10
2017-11-16T05:27:24.308Z,13.93
2017-11-16T05:29:55.810Z,14.05
2017-11-16T05:32:26.589Z,14.63
2017-11-16T05:34:58.770Z,12.95
2017-11-16T05:37:30.729Z,13.25
2017-11-16T05:40:02.589Z,16.05
2017-11-16T05:42:34.454Z,15.13
2017-11-16T05:45:05.852Z,15.85
2017-11-16T05:47:37.449Z,17.33
2017-11-16T05:50:08.172Z,14.00
2017-11-16T05:52:40.792Z,15.05
2017-11-16T05:55:13.531Z,14.63
2017-11-16T05:57:45.093Z,14.60
2017-11-16T06:00:19.092Z,15.57
2017-11-16T06:02:50.432Z,18.15
2017-11-16T06:05:21.796Z,16.35
2017-11-16T06:07:54.797Z,16.55
2017-11-16T06:10:27.058Z,15.05
2017-11-16T06:13:01.580Z,15.80
2017-11-16T06:15:33.438Z,14.48
2017-11-16T06:18:04.058Z,17.45
2017-11-16T06:20:34.838Z,14.65
2017-11-16T06:23:06.039Z,15.70
2017-11-16T06:25:41.179Z,16.40
2017-11-16T06:28:12.218Z,16.10
2017-11-16T06:30:44.179Z,17.27
2017-11-16T06:33:14.918Z,17.45
2017-11-16T06:35:46.541Z,18.75
2017-11-16T06:38:17.713Z,17.87
2017-11-16T06:40:49.673Z,20.23
2017-11-16T06:43:22.153Z,18.60
2017-11-16T06:45:54.113Z,19.33
2017-11-16T06:48:25.157Z,21.70
2017-11-16T06:50:56.073Z,19.77
2017-11-16T06:53:26.835Z,20.70
2017-11-16T06:56:01.454Z,19.65
2017-11-16T06:58:33.613Z,19.98
2017-11-16T07:01:06.174Z,19.08
2017-11-16T07:03:37.314Z,19.52
2017-11-16T07:06:08.255Z,17.67
2017-11-16T07:08:40.216Z,18.75
2017-11-16T07:11:12.596Z,21.12
2017-11-16T07:13:43.815Z,17.83
2017-11-16T07:16:14.816Z,18.83
2017-11-16T07:18:46.935Z,19.02
2017-11-16T07:21:17.776Z,17.17
2017-11-16T07:23:49.336Z,16.48
2017-11-16T07:26:23.756Z,16.10
2017-11-16T07:28:55.716Z,18.05
2017-11-16T07:31:29.714Z,17.20
2017-11-16T07:34:01.281Z,17.25
2017-11-16T07:36:32.517Z,17.87
2017-11-16T07:39:04.383Z,16.33
2017-11-16T07:41:36.535Z,16.00
2017-11-16T07:44:09.536Z,17.35
2017-11-16T07:46:41.076Z,18.15
2017-11-16T07:49:14.375Z,17.77
2017-11-16T07:51:45.715Z,16.67
2017-11-16T07:54:21.816Z,17.90
2017-11-16T07:56:52.935Z,17.52
2017-11-16T07:59:27.436Z,19.80
2017-11-16T08:02:00.818Z,18.25
2017-11-16T08:04:31.998Z,17.15
2017-11-16T08:07:08.036Z,19.42
2017-11-16T08:09:39.295Z,16.83
2017-11-16T08:12:12.083Z,24.58
2017-11-16T08:14:43.016Z,16.50
2017-11-16T08:17:14.062Z,16.75
2017-11-16T08:19:52.823Z,16.12
2017-11-16T08:22:24.544Z,16.23
2017-11-16T08:24:56.599Z,16.35
2017-11-16T08:27:27.813Z,19.70
2017-11-16T08:29:59.997Z,16.62
2017-11-16T08:32:32.456Z,16.65
2017-11-16T08:35:03.216Z,17.95
2017-11-16T08:37:39.815Z,17.45
2017-11-16T08:40:11.939Z,19.65
2017-11-16T08:42:42.551Z,20.12
2017-11-16T08:45:13.829Z,18.00
2017-11-16T08:47:47.214Z,16.67
2017-11-16T08:50:19.276Z,15.50
2017-11-16T08:52:50.538Z,16.85
2017-11-16T08:55:27.497Z,14.10
2017-11-16T08:58:00.485Z,16.52
2017-11-16T09:00:31.804Z,15.07
2017-11-16T09:03:08.088Z,16.92
2017-11-16T09:05:39.524Z,15.85
2017-11-16T09:08:17.232Z,16.70
2017-11-16T09:10:50.427Z,17.92
2017-11-16T09:13:22.086Z,17.80
2017-11-16T09:15:53.346Z,17.58
2017-11-16T09:18:25.007Z,17.02
2017-11-16T09:20:55.927Z,17.42
2017-11-16T09:23:28.827Z,20.52
2017-11-16T09:26:02.886Z,16.48
2017-11-16T09:28:35.307Z,20.58
2017-11-16T09:31:06.646Z,19.23
2017-11-16T09:33:37.686Z,18.60
2017-11-16T09:36:10.567Z,16.10
2017-11-16T09:38:41.811Z,15.40
2017-11-16T09:41:12.546Z,16.65
2017-11-16T09:43:44.406Z,15.70
2017-11-16T09:46:16.566Z,33.95
2017-11-16T09:48:50.687Z,16.87
2017-11-16T09:51:22.547Z,16.83
2017-11-16T09:53:56.147Z,18.40
2017-11-16T09:56:30.344Z,17.42
2017-11-16T09:59:03.327Z,16.83
2017-11-16T10:01:35.826Z,20.33
2017-11-16T10:04:09.206Z,18.37
2017-11-16T10:06:41.070Z,21.35
2017-11-16T10:09:13.026Z,19.55
2017-11-16T10:11:46.526Z,19.73
2017-11-16T10:14:17.768Z,20.85
2017-11-16T10:16:50.847Z,17.27
2017-11-16T10:19:22.107Z,18.37
2017-11-16T10:21:55.180Z,18.42
2017-11-16T10:24:28.387Z,18.02
2017-11-16T10:26:59.747Z,18.02
2017-11-16T10:29:31.687Z,18.62
2017-11-16T10:32:03.981Z,18.92
2017-11-16T10:34:35.727Z,24.05
2017-11-16T10:37:06.447Z,18.60
2017-11-16T10:39:38.309Z,21.10
2017-11-16T10:42:12.529Z,19.40
2017-11-16T10:44:46.329Z,16.42
2017-11-16T10:47:17.850Z,19.17
2017-11-16T10:49:49.537Z,18.48
2017-11-16T10:52:20.998Z,18.27
2017-11-16T10:54:52.224Z,19.23
2017-11-16T10:57:23.380Z,22.80
2017-11-16T10:59:55.340Z,17.67
2017-11-16T11:02:25.876Z,19.00
2017-11-16T11:04:56.860Z,19.30
2017-11-16T11:07:28.980Z,21.42
2017-11-16T11:10:00.421Z,21.10
2017-11-16T11:12:31.158Z,20.75
2017-11-16T11:15:03.418Z,19.95
2017-11-16T11:17:34.678Z,19.50
2017-11-16T11:20:08.281Z,20.58
2017-11-16T11:22:41.346Z,19.45
2017-11-16T11:25:18.948Z,20.10
2017-11-16T11:27:58.686Z,20.00
2017-11-16T11:30:30.445Z,20.35
2017-11-16T11:33:01.596Z,23.90
2017-11-16T11:35:32.131Z,20.23
2017-11-16T11:38:05.730Z,21.65
2017-11-16T11:40:36.961Z,22.83
2017-11-16T11:43:10.670Z,19.30
2017-11-16T11:45:42.011Z,20.17
2017-11-16T11:48:13.559Z,22.58
2017-11-16T11:50:45.221Z,20.58
2017-11-16T11:53:17.690Z,20.17
2017-11-16T11:55:48.432Z,21.15
2017-11-16T11:58:20.707Z,20.70
2017-11-16T12:00:53.681Z,20.25
2017-11-16T12:03:25.048Z,21.80
2017-11-16T12:05:56.883Z,19.65
2017-11-16T12:08:29.372Z,18.83
2017-11-16T12:11:01.337Z,21.12
2017-11-16T12:13:33.595Z,20.85
2017-11-16T12:16:04.910Z,22.40
2017-11-16T12:18:37.860Z,20.05
2017-11-16T12:21:08.579Z,24.50
2017-11-16T12:23:41.968Z,22.45
2017-11-16T12:26:13.008Z,24.90
2017-11-16T12:28:45.681Z,19.40
2017-11-16T12:31:18.061Z,18.85
2017-11-16T12:33:50.120Z,23.90
2017-11-16T12:36:25.253Z,23.98
2017-11-16T12:38:56.588Z,21.50
2017-11-16T12:41:28.451Z,24.55
2017-11-16T12:44:04.604Z,24.23
2017-11-16T12:46:35.635Z,21.45
2017-11-16T12:49:07.619Z,21.25
2017-11-16T12:51:38.459Z,20.40
2017-11-16T12:54:09.400Z,22.20
2017-11-16T12:56:40.318Z,21.20
2017-11-16T12:59:15.359Z,19.95
2017-11-16T13:01:51.899Z,20.05
2017-11-16T13:04:23.084Z,20.60
2017-11-16T13:06:55.959Z,20.62
2017-11-16T13:09:27.720Z,20.40
2017-11-16T13:11:59.170Z,19.95
2017-11-16T13:14:30.878Z,18.98
2017-11-16T13:17:02.778Z,18.10
2017-11-16T13:19:33.520Z,17.70
2017-11-16T13:22:05.587Z,20.42
2017-11-16T13:24:39.587Z,19.33
2017-11-16T13:27:10.730Z,20.83
2017-11-16T13:29:41.268Z,18.48
2017-11-16T13:32:11.780Z,20.48
2017-11-16T13:34:43.752Z,28.77
2017-11-16T13:37:14.692Z,18.10
2017-11-16T13:39:47.979Z,19.00
2017-11-16T13:42:22.094Z,19.15
2017-11-16T13:44:53.352Z,19.40
2017-11-16T13:47:25.613Z,22.30
2017-11-16T13:50:02.381Z,20.45
2017-11-16T13:52:35.981Z,20.55
2017-11-16T13:55:07.893Z,20.10
2017-11-16T13:57:39.396Z,20.52
2017-11-16T14:00:11.253Z,21.00
2017-11-16T14:02:43.227Z,22.02
2017-11-16T14:05:14.268Z,19.15
2017-11-16T14:07:46.104Z,20.35
2017-11-16T14:10:18.693Z,19.77
2017-11-16T14:12:50.455Z,20.30
2017-11-16T14:15:22.112Z,23.12
2017-11-16T14:17:59.590Z,22.30
2017-11-16T14:20:31.040Z,22.00
2017-11-16T14:23:01.911Z,23.27
2017-11-16T14:25:34.069Z,19.40
2017-11-16T14:28:05.590Z,23.73
2017-11-16T14:30:36.750Z,15.07
2017-11-16T14:33:08.208Z,12.50
2017-11-16T14:35:39.848Z,20.60
2017-11-16T14:38:13.058Z,18.25
2017-11-16T14:40:43.969Z,20.55
2017-11-16T14:43:15.729Z,18.80
2017-11-16T14:45:49.549Z,23.92
2017-11-16T14:48:20.588Z,20.35
2017-11-16T14:50:52.648Z,20.33
2017-11-16T14:53:24.808Z,22.75
2017-11-16T14:55:57.194Z,22.00
2017-11-16T14:58:29.349Z,20.58
2017-11-16T15:01:00.589Z,22.62
2017-11-16T15:03:32.550Z,22.83
2017-11-16T15:06:05.029Z,24.08
2017-11-16T15:08:36.493Z,23.08
2017-11-16T15:11:07.829Z,23.17
2017-11-16T15:13:41.630Z,21.83
2017-11-16T15:16:12.570Z,23.15
2017-11-16T15:18:45.449Z,22.33
2017-11-16T15:21:18.229Z,23.17
2017-11-16T15:23:49.381Z,24.48
2017-11-16T15:26:21.244Z,24.77
2017-11-16T15:28:53.854Z,22.52
2017-11-16T15:31:27.100Z,22.98
2017-11-16T15:33:58.940Z,23.35
2017-11-16T15:36:35.904Z,23.83
2017-11-16T15:39:08.822Z,22.10
2017-11-16T15:41:40.383Z,48.72
2017-11-16T15:44:12.451Z,23.20
2017-11-16T15:46:42.771Z,22.87
2017-11-16T15:49:15.936Z,23.67
2017-11-16T15:51:47.516Z,23.15
2017-11-16T15:54:19.781Z,21.90
2017-11-16T15:56:50.950Z,25.30
2017-11-16T15:59:22.991Z,23.45
2017-11-16T16:01:53.612Z,23.00
2017-11-16T16:04:25.171Z,24.45
2017-11-16T16:06:57.135Z,24.40
2017-11-16T16:09:29.195Z,23.70
2017-11-16T16:12:00.336Z,22.50
2017-11-16T16:14:34.355Z,22.42
2017-11-16T16:17:05.076Z,22.08
2017-11-16T16:19:36.835Z,23.05
2017-11-16T16:22:07.896Z,23.55
2017-11-16T16:24:40.677Z,25.40
2017-11-16T16:27:14.879Z,24.10
2017-11-16T16:29:46.537Z,28.73
2017-11-16T16:32:18.298Z,24.25
2017-11-16T16:34:49.539Z,23.23
2017-11-16T16:37:21.499Z,22.45
2017-11-16T16:39:53.057Z,23.08
2017-11-16T16:42:23.278Z,22.30
2017-11-16T16:44:55.338Z,23.23
2017-11-16T16:47:26.978Z,24.58
2017-11-16T16:49:58.138Z,25.58
2017-11-16T16:52:30.100Z,25.37
2017-11-16T16:55:01.315Z,20.98
2017-11-16T16:57:33.495Z,22.75
2017-11-16T17:00:04.434Z,23.08
2017-11-16T17:02:36.395Z,22.58
2017-11-16T17:05:07.134Z,23.25
2017-11-16T17:07:38.994Z,31.85
2017-11-16T17:10:13.213Z,23.62
2017-11-16T17:12:52.329Z,21.52
2017-11-16T17:15:25.016Z,29.25
2017-11-16T17:17:56.475Z,38.88
2017-11-16T17:20:30.376Z,23.38
2017-11-16T17:23:02.234Z,23.67
2017-11-16T17:25:36.661Z,24.02
2017-11-16T17:28:07.294Z,24.77
2017-11-16T17:30:40.574Z,21.85
2017-11-16T17:33:14.382Z,21.85
2017-11-16T17:35:45.894Z,24.25
2017-11-16T17:38:17.611Z,24.00
2017-11-16T17:40:49.654Z,23.15
2017-11-16T17:43:22.142Z,20.77
2017-11-16T17:45:53.596Z,23.20
2017-11-16T17:48:25.435Z,21.90
2017-11-16T17:50:56.353Z,22.40
2017-11-16T17:53:27.015Z,22.08
2017-11-16T17:56:00.194Z,27.48
2017-11-16T17:58:32.934Z,22.25
2017-11-16T18:01:04.015Z,23.02
2017-11-16T18:03:34.893Z,22.70
2017-11-16T18:06:06.894Z,22.73
2017-11-16T18:08:41.143Z,21.10
2017-11-16T18:11:12.874Z,23.02
2017-11-16T18:13:43.814Z,22.13
2017-11-16T18:16:14.453Z,22.60
2017-11-16T18:18:45.996Z,24.30
2017-11-16T18:21:17.454Z,22.40
2017-11-16T18:23:49.330Z,22.52
2017-11-16T18:26:21.575Z,23.38
2017-11-16T18:28:52.899Z,19.67
2017-11-16T18:31:24.479Z,22.25
2017-11-16T18:33:56.020Z,27.62
2017-11-16T18:36:27.393Z,23.95
2017-11-16T18:38:58.452Z,24.10
2017-11-16T18:41:32.832Z,21.15
2017-11-16T18:44:05.113Z,24.02
2017-11-16T18:46:36.253Z,24.85
2017-11-16T18:49:06.954Z,23.33
2017-11-16T18:51:39.553Z,22.20
2017-11-16T18:54:13.574Z,21.60
2017-11-16T18:56:48.413Z,24.92
2017-11-16T18:59:19.893Z,24.05
2017-11-16T19:01:54.892Z,22.05
2017-11-16T19:04:27.572Z,23.02
2017-11-16T19:07:01.372Z,21.62
2017-11-16T19:09:41.313Z,21.75
2017-11-16T19:12:13.274Z,22.33
2017-11-16T19:14:44.213Z,22.40
2017-11-16T19:17:15.933Z,22.62
2017-11-16T19:19:47.633Z,23.17
2017-11-16T19:22:20.312Z,22.62
2017-11-16T19:24:53.177Z,22.77
2017-11-16T19:27:27.619Z,24.83
2017-11-16T19:29:59.905Z,23.55
2017-11-16T19:32:34.214Z,23.12
2017-11-16T19:35:05.354Z,25.00
2017-11-16T19:37:36.175Z,25.73
2017-11-16T19:40:08.335Z,23.87
2017-11-16T19:42:41.930Z,22.13
2017-11-16T19:45:18.294Z,23.17
2017-11-16T19:47:50.894Z,24.52
2017-11-16T19:50:22.935Z,23.05
2017-11-16T19:52:53.894Z,23.83
2017-11-16T19:55:24.634Z,23.83
2017-11-16T19:57:56.274Z,40.33
2017-11-16T20:00:27.314Z,24.60
2017-11-16T20:02:58.274Z,22.40
2017-11-16T20:05:31.536Z,23.90
2017-11-16T20:08:02.375Z,23.90
2017-11-16T20:10:33.223Z,24.20
2017-11-16T20:13:04.355Z,25.02
2017-11-16T20:15:35.714Z,24.02
2017-11-16T20:18:06.534Z,23.05
2017-11-16T20:20:37.494Z,22.87
2017-11-16T20:23:07.953Z,25.05
2017-11-16T20:25:38.854Z,22.95
2017-11-16T20:28:11.914Z,22.35
2017-11-16T20:30:44.619Z,23.20
2017-11-16T20:33:16.374Z,24.67
2017-11-16T20:35:47.294Z,22.62
2017-11-16T20:41:52.915Z,24.15
2017-11-16T20:44:38.154Z,22.73
2017-11-16T20:47:15.754Z,22.85
2017-11-16T20:49:47.596Z,22.65
2017-11-16T20:52:20.697Z,24.35
2017-11-16T20:54:51.734Z,23.73
2017-11-16T20:57:22.055Z,22.10
2017-11-16T20:59:53.514Z,22.27
2017-11-16T21:02:25.474Z,21.33
2017-11-16T21:05:00.414Z,22.35
2017-11-16T21:07:33.495Z,22.40
2017-11-16T21:10:04.934Z,21.80
2017-11-16T21:12:37.914Z,21.80
2017-11-16T21:15:09.477Z,22.60
2017-11-16T21:17:41.854Z,24.15
2017-11-16T21:20:13.614Z,21.42
2017-11-16T21:22:45.254Z,24.40
2017-11-16T21:25:19.174Z,23.23
2017-11-16T21:27:50.814Z,23.30
2017-11-16T21:30:22.894Z,22.75
2017-11-16T21:32:56.935Z,21.98
2017-11-16T21:35:28.557Z,23.00
2017-11-16T21:37:59.595Z,22.37
2017-11-16T21:40:32.934Z,23.55
2017-11-16T21:43:05.233Z,27.10
2017-11-16T21:45:37.834Z,23.45
2017-11-16T21:48:09.934Z,23.20
2017-11-16T21:50:41.854Z,24.17
2017-11-16T21:53:12.694Z,24.92
2017-11-16T21:55:44.954Z,23.60
2017-11-16T21:58:16.975Z,25.27
2017-11-16T22:00:50.955Z,23.23
2017-11-16T22:03:21.935Z,23.62
2017-11-16T22:05:55.155Z,22.52
2017-11-16T22:08:27.134Z,23.15
2017-11-16T22:10:58.175Z,22.83
2017-11-16T22:13:32.274Z,23.00
2017-11-16T22:16:03.935Z,23.20
2017-11-16T22:18:34.934Z,22.60
2017-11-16T22:21:06.628Z,24.05
2017-11-16T22:23:40.147Z,23.40
2017-11-16T22:26:12.794Z,23.10
2017-11-16T22:28:43.635Z,22.60
2017-11-16T22:31:18.254Z,22.62
2017-11-16T22:33:51.343Z,23.40
2017-11-16T22:36:22.694Z,22.95
2017-11-16T22:38:54.954Z,21.98
2017-11-16T22:41:25.935Z,22.27
2017-11-16T22:43:57.935Z,23.08
2017-11-16T22:46:28.694Z,22.75
2017-11-16T22:48:59.435Z,22.73
2017-11-16T22:51:31.595Z,22.35
2017-11-16T22:54:02.335Z,22.35
2017-11-16T22:56:36.463Z,22.95
2017-11-16T22:59:08.914Z,22.45
2017-11-16T23:01:39.234Z,23.33
2017-11-16T23:04:10.595Z,22.92
2017-11-16T23:06:42.016Z,21.37
2017-11-16T23:09:15.014Z,22.95
2017-11-16T23:11:47.594Z,22.65
2017-11-16T23:14:18.633Z,23.12
2017-11-16T23:16:51.734Z,22.45
2017-11-16T23:19:24.314Z,23.17
2017-11-16T23:21:58.415Z,21.37
2017-11-16T23:24:30.395Z,22.55
2017-11-16T23:27:01.995Z,22.73
2017-11-16T23:29:32.674Z,23.33
2017-11-16T23:32:07.095Z,22.02
2017-11-16T23:34:38.854Z,21.87
2017-11-16T23:37:10.955Z,21.60
2017-11-16T23:39:42.055Z,21.98
2017-11-16T23:42:13.814Z,24.27
2017-11-16T23:44:50.634Z,21.87
2017-11-16T23:47:23.054Z,22.13
2017-11-16T23:49:57.076Z,23.75
2017-11-16T23:52:29.854Z,20.60
2017-11-16T23:55:05.956Z,22.48
2017-11-16T23:57:37.962Z,22.52
